Time;durP1;ratioP1;P1;durP2;ratioP2;P2;SDS_P1;SDS_P2;PMS_P1;PMS_P2;Temp;Humidity;BMP_temperature;BMP_pressure;BME280_temperature;BME280_humidity;BME280_pressure;Samples;Min_cycle;Max_cycle;Signal;HPM_P1;HPM_P2
2022/08/30 00:01:31;;;;;;;4.33;1.90;;;18.60;99.90;;;;;;5035617;28;20181;-74
2022/08/30 00:03:57;;;;;;;2.23;1.80;;;18.50;99.90;;;;;;5035599;28;20695;-74
2022/08/30 00:06:25;;;;;;;3.60;2.17;;;18.50;99.90;;;;;;5035269;28;20940;-74
2022/08/30 00:08:52;;;;;;;4.33;2.03;;;18.50;99.90;;;;;;5033935;28;20499;-74
2022/08/30 00:11:21;;;;;;;2.50;1.87;;;18.40;99.90;;;;;;5034128;28;20491;-74
2022/08/30 00:13:49;;;;;;;2.80;1.73;;;18.40;99.90;;;;;;5035133;28;20465;-74
2022/08/30 00:16:16;;;;;;;4.60;2.00;;;18.40;99.90;;;;;;5035081;28;20406;-74
2022/08/30 00:18:41;;;;;;;1.60;1.30;;;18.40;99.90;;;;;;5035316;28;20398;-74
2022/08/30 00:21:08;;;;;;;2.20;1.77;;;18.40;99.90;;;;;;5031165;28;20929;-74
2022/08/30 00:23:34;;;;;;;3.27;1.53;;;18.40;99.90;;;;;;5034786;28;20191;-74
2022/08/30 00:26:01;;;;;;;2.10;1.50;;;18.40;99.90;;;;;;5034871;28;20405;-74
2022/08/30 00:28:27;;;;;;;2.90;1.60;;;18.30;99.90;;;;;;5035371;28;20166;-74
2022/08/30 00:30:53;;;;;;;2.70;2.00;;;18.20;99.90;;;;;;5033335;28;20434;-74
2022/08/30 00:33:20;;;;;;;3.00;1.77;;;18.10;99.90;;;;;;5032300;28;20225;-74
2022/08/30 00:35:45;;;;;;;1.87;1.43;;;18.10;99.90;;;;;;5034681;28;20775;-73
2022/08/30 00:38:12;;;;;;;1.80;1.60;;;18.00;99.90;;;;;;5034944;28;20409;-74
2022/08/30 00:40:40;;;;;;;2.27;2.00;;;17.90;99.90;;;;;;5035167;28;20535;-74
2022/08/30 00:43:11;;;;;;;3.03;1.67;;;17.90;99.90;;;;;;5031847;28;20437;-74
2022/08/30 00:45:37;;;;;;;3.00;2.47;;;17.80;99.90;;;;;;5032215;28;20473;-74
2022/08/30 00:48:04;;;;;;;1.97;1.40;;;17.80;99.90;;;;;;5034717;28;20882;-74
2022/08/30 00:50:40;;;;;;;2.47;2.10;;;17.70;99.90;;;;;;5035022;28;20810;-74
2022/08/30 00:53:12;;;;;;;3.80;2.03;;;17.70;99.90;;;;;;5029454;28;21044;-73
2022/08/30 00:55:39;;;;;;;2.17;1.97;;;17.60;99.90;;;;;;5034424;28;20453;-74
2022/08/30 00:58:07;;;;;;;5.03;2.10;;;17.60;99.90;;;;;;5034751;28;20486;-74
2022/08/30 01:00:33;;;;;;;1.93;1.60;;;17.60;99.90;;;;;;5031826;28;20544;-74
2022/08/30 01:02:59;;;;;;;5.80;2.80;;;17.50;99.90;;;;;;5032487;28;20458;-74
2022/08/30 01:05:24;;;;;;;3.20;1.83;;;17.50;99.90;;;;;;5032564;28;20453;-74
2022/08/30 01:07:50;;;;;;;2.10;1.90;;;17.50;99.90;;;;;;5034476;28;20178;-74
2022/08/30 01:10:16;;;;;;;1.80;1.50;;;17.50;99.90;;;;;;5034759;28;20218;-74
2022/08/30 01:12:43;;;;;;;2.80;1.70;;;17.50;99.90;;;;;;5032761;28;20183;-74
2022/08/30 01:15:13;;;;;;;2.37;1.47;;;17.40;99.90;;;;;;5034013;28;20962;-74
2022/08/30 01:17:40;;;;;;;2.10;1.70;;;17.40;99.90;;;;;;5033082;28;20923;-74
2022/08/30 01:20:09;;;;;;;2.83;2.07;;;17.40;99.90;;;;;;5034425;28;20399;-74
2022/08/30 01:22:48;;;;;;;2.47;1.83;;;17.40;99.90;;;;;;5034006;28;20399;-74
2022/08/30 01:25:20;;;;;;;3.63;1.73;;;17.40;99.90;;;;;;5032764;28;20841;-74
2022/08/30 01:28:07;;;;;;;2.20;1.60;;;17.40;99.90;;;;;;5033933;28;20445;-74
2022/08/30 01:30:34;;;;;;;3.10;1.33;;;17.50;99.90;;;;;;5031274;28;20966;-74
2022/08/30 01:33:03;;;;;;;5.73;1.90;;;17.50;99.90;;;;;;5033541;28;20480;-74
2022/08/30 01:35:53;;;;;;;3.33;2.13;;;17.60;99.90;;;;;;5031548;28;20508;-74
2022/08/30 01:38:22;;;;;;;5.30;1.60;;;17.60;99.90;;;;;;5012466;28;20415;-74
2022/08/30 01:40:48;;;;;;;2.50;2.13;;;17.70;99.90;;;;;;5028781;28;20427;-74
2022/08/30 01:43:16;;;;;;;4.30;2.40;;;17.70;99.90;;;;;;5033707;28;20426;-73
2022/08/30 01:45:42;;;;;;;6.00;1.93;;;17.80;99.90;;;;;;5031024;28;20977;-73
2022/08/30 01:48:10;;;;;;;3.07;2.00;;;17.80;99.90;;;;;;5031552;28;20462;-74
2022/08/30 01:50:36;;;;;;;2.33;1.83;;;17.80;99.90;;;;;;5033481;28;20237;-73
2022/08/30 01:53:01;;;;;;;3.60;2.23;;;17.80;99.90;;;;;;5033569;28;20422;-73
2022/08/30 01:55:27;;;;;;;3.80;3.30;;;17.80;99.90;;;;;;5032238;28;20626;-73
2022/08/30 01:57:52;;;;;;;5.43;4.93;;;17.90;99.90;;;;;;5029339;28;20645;-74
2022/08/30 02:00:18;;;;;;;6.70;2.60;;;17.80;99.90;;;;;;5033407;28;20207;-74
2022/08/30 02:02:43;;;;;;;3.40;2.00;;;17.80;99.90;;;;;;5033473;28;20187;-74
2022/08/30 02:05:10;;;;;;;2.87;1.83;;;17.70;99.90;;;;;;5033250;28;20617;-74
2022/08/30 02:07:35;;;;;;;4.13;2.20;;;17.70;99.90;;;;;;5030227;28;20176;-73
2022/08/30 02:10:01;;;;;;;1.93;1.43;;;17.70;99.90;;;;;;5032912;28;20441;-73
2022/08/30 02:12:29;;;;;;;2.90;1.63;;;17.70;99.90;;;;;;5032940;28;20172;-73
2022/08/30 02:14:54;;;;;;;3.70;1.97;;;17.70;99.90;;;;;;5031301;28;20198;-73
2022/08/30 02:17:20;;;;;;;3.53;2.13;;;17.70;99.90;;;;;;5031213;28;20438;-73
2022/08/30 02:19:45;;;;;;;3.30;2.20;;;17.70;99.90;;;;;;5032501;28;20170;-73
2022/08/30 02:22:11;;;;;;;2.30;1.97;;;17.70;99.90;;;;;;5033156;28;20163;-74
2022/08/30 02:24:37;;;;;;;3.87;2.37;;;17.80;99.90;;;;;;5032590;28;20714;-73
2022/08/30 02:27:03;;;;;;;3.30;1.63;;;17.80;99.90;;;;;;5032679;28;20179;-73
2022/08/30 02:29:29;;;;;;;1.47;1.30;;;17.80;99.90;;;;;;5031250;28;20211;-73
2022/08/30 02:31:55;;;;;;;1.77;1.57;;;17.80;99.90;;;;;;5029932;28;20484;-73
2022/08/30 02:34:20;;;;;;;4.60;2.20;;;17.80;99.90;;;;;;5032236;28;20481;-73
2022/08/30 02:36:46;;;;;;;2.73;2.00;;;17.80;99.90;;;;;;5032626;28;20176;-73
2022/08/30 02:39:13;;;;;;;3.30;2.40;;;17.80;99.90;;;;;;5032587;28;20207;-73
2022/08/30 02:41:39;;;;;;;4.53;1.97;;;17.70;99.90;;;;;;5028897;28;20434;-74
2022/08/30 02:44:06;;;;;;;5.23;1.80;;;17.70;99.90;;;;;;5025950;28;20454;-74
2022/08/30 02:46:32;;;;;;;1.83;1.43;;;17.60;99.90;;;;;;5040355;28;20430;-74
2022/08/30 02:48:57;;;;;;;5.27;2.20;;;17.60;99.90;;;;;;5032368;28;20449;-74
2022/08/30 02:51:23;;;;;;;1.57;1.40;;;17.60;99.90;;;;;;5032394;28;20698;-74
2022/08/30 02:53:48;;;;;;;2.07;1.43;;;17.50;99.90;;;;;;5032385;28;20227;-74
2022/08/30 02:56:14;;;;;;;1.60;1.30;;;17.40;99.90;;;;;;5045384;28;20171;-74
2022/08/30 02:58:41;;;;;;;4.73;2.30;;;17.40;99.90;;;;;;5032323;28;20167;-73
2022/08/30 03:01:08;;;;;;;5.13;2.13;;;17.30;99.90;;;;;;5032175;28;20496;-72
2022/08/30 03:03:35;;;;;;;2.47;1.80;;;17.20;99.90;;;;;;5032571;28;20414;-72
2022/08/30 03:06:02;;;;;;;2.20;1.90;;;17.20;99.90;;;;;;5041031;28;20417;-73
2022/08/30 03:08:28;;;;;;;3.37;2.03;;;17.20;99.90;;;;;;5051309;28;20401;-73
2022/08/30 03:10:56;;;;;;;3.47;2.27;;;17.10;99.90;;;;;;5040676;28;20426;-73
2022/08/30 03:13:22;;;;;;;19.13;11.20;;;17.10;99.90;;;;;;5032048;28;20484;-73
2022/08/30 03:15:49;;;;;;;17.10;11.23;;;17.00;99.90;;;;;;5031864;28;20528;-73
2022/08/30 03:18:15;;;;;;;19.10;10.83;;;17.00;99.90;;;;;;5032154;28;20858;-73
2022/08/30 03:20:41;;;;;;;4.40;3.67;;;17.00;99.90;;;;;;5031625;28;20414;-73
2022/08/30 03:23:06;;;;;;;4.83;2.40;;;16.90;99.90;;;;;;5032629;28;20496;-73
2022/08/30 03:25:32;;;;;;;5.10;2.50;;;16.90;99.90;;;;;;5031452;28;20202;-73
2022/08/30 03:27:58;;;;;;;3.83;2.33;;;16.90;99.90;;;;;;5031779;28;20679;-73
2022/08/30 03:30:24;;;;;;;2.47;2.00;;;17.00;99.90;;;;;;5028666;28;20176;-73
2022/08/30 03:32:49;;;;;;;3.23;1.93;;;17.00;99.90;;;;;;5030473;28;20231;-73
2022/08/30 03:35:16;;;;;;;3.00;1.63;;;17.00;99.90;;;;;;5031684;28;20215;-73
2022/08/30 03:37:43;;;;;;;4.07;2.43;;;17.00;99.90;;;;;;5031931;28;20156;-73
2022/08/30 03:40:09;;;;;;;2.47;1.70;;;17.00;99.90;;;;;;5031716;28;20497;-73
2022/08/30 03:42:35;;;;;;;3.20;1.93;;;17.00;99.90;;;;;;5029709;28;20791;-72
2022/08/30 03:45:02;;;;;;;6.00;2.60;;;17.10;99.90;;;;;;5031396;28;20536;-73
2022/08/30 03:47:28;;;;;;;4.43;2.53;;;17.10;99.90;;;;;;5031513;28;20541;-72
2022/08/30 03:49:54;;;;;;;2.53;1.97;;;17.10;99.90;;;;;;5029485;28;20441;-73
2022/08/30 03:52:19;;;;;;;3.70;2.73;;;17.10;99.90;;;;;;5031778;28;20222;-73
2022/08/30 03:54:45;;;;;;;3.27;2.00;;;17.10;99.90;;;;;;5031316;28;20547;-73
2022/08/30 03:57:11;;;;;;;2.63;1.87;;;17.00;99.90;;;;;;5031762;28;20171;-73
2022/08/30 03:59:36;;;;;;;2.53;1.90;;;17.00;99.90;;;;;;5030332;28;20164;-72
2022/08/30 04:02:02;;;;;;;4.27;1.83;;;16.90;99.90;;;;;;5027192;28;20174;-73
2022/08/30 04:04:27;;;;;;;3.57;2.40;;;16.90;99.90;;;;;;5029431;28;20292;-72
2022/08/30 04:06:54;;;;;;;2.20;1.90;;;16.80;99.90;;;;;;5031565;28;20272;-72
2022/08/30 04:09:19;;;;;;;7.63;2.07;;;16.70;99.90;;;;;;5031616;28;20180;-72
2022/08/30 04:11:45;;;;;;;2.63;1.60;;;16.70;99.90;;;;;;5031508;28;20891;-72
2022/08/30 04:14:11;;;;;;;11.73;4.50;;;16.70;99.90;;;;;;5030889;28;20199;-73
2022/08/30 04:16:36;;;;;;;5.77;4.13;;;16.60;99.90;;;;;;5031344;28;20402;-72
2022/08/30 04:19:02;;;;;;;4.80;2.57;;;16.60;99.90;;;;;;5029578;28;20172;-73
2022/08/30 04:21:28;;;;;;;11.20;4.37;;;16.60;99.90;;;;;;5033345;28;20267;-73
2022/08/30 04:23:53;;;;;;;3.20;2.80;;;16.50;99.90;;;;;;5035002;28;20223;-73
2022/08/30 04:26:19;;;;;;;4.60;2.77;;;16.50;99.90;;;;;;5034915;28;20176;-73
2022/08/30 04:28:44;;;;;;;2.53;2.07;;;16.50;99.90;;;;;;5034900;28;20637;-73
2022/08/30 04:31:13;;;;;;;3.30;2.00;;;16.50;99.90;;;;;;5034843;28;20525;-73
2022/08/30 04:33:39;;;;;;;2.50;1.33;;;16.50;99.90;;;;;;5031430;28;20282;-73
2022/08/30 04:36:06;;;;;;;2.03;1.73;;;16.50;99.90;;;;;;5032733;28;20830;-74
2022/08/30 04:38:33;;;;;;;5.50;1.83;;;16.50;99.90;;;;;;5033793;28;20414;-74
2022/08/30 04:40:59;;;;;;;3.57;1.80;;;16.50;99.90;;;;;;5035057;28;20884;-74
2022/08/30 04:43:25;;;;;;;2.80;1.77;;;16.50;99.90;;;;;;5032549;28;20503;-73
2022/08/30 04:45:52;;;;;;;3.60;2.07;;;16.60;99.90;;;;;;5034554;28;20176;-74
2022/08/30 04:48:18;;;;;;;3.90;2.20;;;16.50;99.90;;;;;;5033225;28;20440;-73
2022/08/30 04:50:44;;;;;;;2.80;2.00;;;16.60;99.90;;;;;;5034466;28;20450;-73
2022/08/30 04:53:10;;;;;;;2.43;1.97;;;16.60;99.90;;;;;;5034420;28;20211;-73
2022/08/30 04:55:36;;;;;;;3.67;2.10;;;16.60;99.90;;;;;;5034043;28;20923;-72
2022/08/30 04:58:01;;;;;;;3.77;2.23;;;16.70;99.90;;;;;;5032640;28;20517;-73
2022/08/30 05:00:27;;;;;;;2.43;1.90;;;16.70;99.90;;;;;;5032866;28;20442;-73
2022/08/30 05:02:53;;;;;;;3.77;2.13;;;16.80;99.90;;;;;;5031031;28;20199;-73
2022/08/30 05:08:03;;;;;;;3.40;2.30;;;16.90;99.90;;;;;;5034375;28;20178;-73
2022/08/30 05:10:29;;;;;;;6.67;4.17;;;17.00;99.90;;;;;;5034198;28;20430;-72
2022/08/30 05:12:55;;;;;;;3.07;2.30;;;17.00;99.90;;;;;;5029551;28;20978;-73
2022/08/30 05:15:21;;;;;;;2.97;2.33;;;17.00;99.90;;;;;;5033841;28;20195;-73
2022/08/30 05:17:47;;;;;;;3.77;2.20;;;17.00;99.90;;;;;;5032853;28;20498;-73
2022/08/30 05:20:14;;;;;;;2.40;2.00;;;17.10;99.90;;;;;;5034018;28;20488;-73
2022/08/30 05:22:48;;;;;;;2.30;1.90;;;17.10;99.90;;;;;;5033889;28;20394;-73
2022/08/30 05:25:19;;;;;;;2.43;2.20;;;17.10;99.90;;;;;;5031003;28;20441;-73
2022/08/30 05:27:45;;;;;;;5.93;1.87;;;17.10;99.90;;;;;;5033828;28;20420;-74
2022/08/30 05:30:13;;;;;;;5.30;2.27;;;17.20;99.90;;;;;;5032602;28;20402;-73
2022/08/30 05:32:39;;;;;;;2.80;1.70;;;17.20;99.90;;;;;;5029231;28;20822;-74
2022/08/30 05:35:05;;;;;;;2.93;2.27;;;17.20;99.90;;;;;;5033721;28;20453;-74
2022/08/30 05:37:31;;;;;;;3.33;1.80;;;17.30;99.90;;;;;;5031802;28;20203;-74
2022/08/30 05:39:56;;;;;;;2.40;1.57;;;17.50;99.90;;;;;;5033493;28;20456;-73
2022/08/30 05:42:22;;;;;;;3.27;2.13;;;17.70;99.90;;;;;;5032347;28;20203;-73
2022/08/30 05:44:51;;;;;;;2.73;2.30;;;18.00;99.90;;;;;;5031042;28;20195;-73
2022/08/30 05:47:18;;;;;;;3.57;1.67;;;18.30;99.90;;;;;;5033175;28;20246;-73
2022/08/30 05:49:43;;;;;;;2.70;1.53;;;18.70;99.90;;;;;;5033390;28;20456;-73
2022/08/30 05:52:09;;;;;;;3.23;1.87;;;19.00;99.90;;;;;;5030074;28;20906;-73
2022/08/30 05:54:34;;;;;;;2.73;2.40;;;19.40;99.90;;;;;;5031876;28;20253;-73
2022/08/30 05:57:00;;;;;;;4.90;2.50;;;19.70;99.90;;;;;;5028854;28;20192;-73
2022/08/30 05:59:26;;;;;;;4.40;2.60;;;20.00;99.90;;;;;;5028528;28;20176;-73
2022/08/30 06:01:56;;;;;;;4.03;2.60;;;20.30;99.90;;;;;;5028104;28;20827;-73
2022/08/30 06:04:21;;;;;;;4.27;2.60;;;20.50;99.90;;;;;;5021934;28;22298;-73
2022/08/30 06:06:47;;;;;;;7.90;2.50;;;20.70;99.90;;;;;;5030933;28;20465;-73
2022/08/30 06:09:13;;;;;;;5.13;2.80;;;20.90;99.90;;;;;;5032426;28;20262;-73
2022/08/30 06:11:40;;;;;;;2.63;1.73;;;21.00;99.90;;;;;;5033306;28;20172;-73
2022/08/30 06:14:05;;;;;;;3.40;2.07;;;21.10;99.90;;;;;;5028979;28;21004;-72
2022/08/30 06:16:32;;;;;;;4.33;2.10;;;21.10;99.90;;;;;;5032573;28;20418;-74
2022/08/30 06:18:58;;;;;;;3.80;2.50;;;21.10;99.90;;;;;;5033082;28;20587;-73
2022/08/30 06:21:28;;;;;;;2.70;2.50;;;21.10;99.90;;;;;;5033299;28;20895;-73
2022/08/30 06:23:55;;;;;;;2.60;2.13;;;21.20;99.90;;;;;;5033119;28;20434;-74
2022/08/30 06:26:21;;;;;;;3.80;2.67;;;21.70;99.90;;;;;;5050764;28;20409;-73
2022/08/30 06:28:48;;;;;;;3.20;2.37;;;22.30;99.90;;;;;;5035401;28;20788;-73
2022/08/30 06:31:15;;;;;;;3.63;2.40;;;23.00;99.90;;;;;;5032805;28;20426;-73
2022/08/30 06:33:41;;;;;;;3.87;2.63;;;23.70;99.90;;;;;;5031426;28;20462;-74
2022/08/30 06:36:10;;;;;;;2.23;1.90;;;24.20;99.90;;;;;;5031182;28;20434;-73
2022/08/30 06:38:36;;;;;;;2.37;1.93;;;24.60;99.90;;;;;;5030619;28;20206;-73
2022/08/30 06:41:07;;;;;;;7.03;2.37;;;25.00;99.90;;;;;;5031251;28;20523;-73
2022/08/30 06:43:33;;;;;;;5.87;2.67;;;25.50;99.90;;;;;;5030873;28;20446;-72
2022/08/30 06:46:03;;;;;;;3.40;2.30;;;25.80;99.90;;;;;;5032319;28;20428;-74
2022/08/30 06:48:29;;;;;;;6.47;2.80;;;25.80;99.90;;;;;;5030566;28;20240;-73
2022/08/30 06:50:54;;;;;;;3.70;2.10;;;25.60;99.90;;;;;;5029828;28;20437;-73
2022/08/30 06:53:20;;;;;;;3.20;2.00;;;25.40;99.90;;;;;;5029808;28;20207;-74
2022/08/30 06:56:06;;;;;;;2.40;2.07;;;25.30;99.90;;;;;;5026100;28;20204;-74
2022/08/30 06:58:33;;;;;;;4.30;3.40;;;25.30;99.90;;;;;;5032369;28;20774;-74
2022/08/30 07:00:59;;;;;;;2.90;1.83;;;25.40;99.90;;;;;;5032318;28;20402;-74
2022/08/30 07:03:28;;;;;;;2.87;1.90;;;25.40;99.90;;;;;;5029082;28;20452;-74
2022/08/30 07:05:55;;;;;;;3.80;2.33;;;25.60;99.90;;;;;;5031096;28;20194;-74
2022/08/30 07:08:23;;;;;;;6.60;2.33;;;25.70;98.10;;;;;;5046477;28;20916;-74
2022/08/30 07:10:49;;;;;;;5.10;2.50;;;25.90;96.70;;;;;;5031945;28;20789;-74
2022/08/30 07:13:15;;;;;;;3.30;2.47;;;26.30;96.70;;;;;;5028329;28;20540;-74
2022/08/30 07:15:43;;;;;;;5.10;2.10;;;26.90;94.30;;;;;;5033062;28;20457;-74
2022/08/30 07:20:54;;;;;;;2.90;2.33;;;27.00;91.80;;;;;;5030716;28;20440;-74
2022/08/30 07:23:20;;;;;;;3.00;2.30;;;27.20;92.30;;;;;;5032702;28;20446;-75
2022/08/30 07:25:45;;;;;;;4.47;2.20;;;27.80;88.80;;;;;;5029023;28;20262;-75
2022/08/30 07:28:11;;;;;;;4.63;3.30;;;28.70;82.90;;;;;;5031963;28;20207;-75
2022/08/30 07:30:39;;;;;;;7.87;2.80;;;29.60;78.60;;;;;;5018608;28;20179;-73
2022/08/30 07:33:04;;;;;;;6.37;2.53;;;30.40;68.50;;;;;;5012198;28;20230;-73
2022/08/30 07:35:30;;;;;;;4.97;2.90;;;31.00;67.80;;;;;;5011784;28;20861;-73
2022/08/30 07:37:57;;;;;;;5.00;3.07;;;31.40;62.10;;;;;;5027650;28;20241;-73
2022/08/30 07:40:22;;;;;;;2.83;2.50;;;31.40;59.10;;;;;;5031843;28;20255;-73
2022/08/30 07:42:48;;;;;;;3.70;2.73;;;31.20;58.20;;;;;;5031829;28;20840;-73
2022/08/30 07:45:13;;;;;;;3.43;2.97;;;31.40;58.10;;;;;;5031550;28;20529;-73
2022/08/30 07:47:40;;;;;;;2.93;2.63;;;31.70;57.50;;;;;;5031894;28;20561;-73
2022/08/30 07:50:06;;;;;;;4.80;2.07;;;31.80;54.10;;;;;;5030597;28;20175;-73
2022/08/30 07:52:32;;;;;;;3.03;2.00;;;32.30;53.40;;;;;;5051571;28;20504;-73
2022/08/30 07:54:59;;;;;;;3.03;1.70;;;32.30;53.10;;;;;;5053058;28;20532;-73
2022/08/30 07:57:24;;;;;;;3.53;1.80;;;32.10;52.70;;;;;;5055638;28;20213;-73
2022/08/30 07:59:50;;;;;;;3.10;2.57;;;31.80;52.70;;;;;;5055687;28;20402;-73
2022/08/30 08:02:17;;;;;;;2.07;1.63;;;31.40;52.90;;;;;;5047963;28;20215;-73
2022/08/30 08:04:42;;;;;;;2.73;1.80;;;31.00;53.70;;;;;;5033962;28;20438;-73
2022/08/30 08:07:09;;;;;;;7.03;2.13;;;30.70;53.30;;;;;;5035627;28;20771;-73
2022/08/30 08:09:36;;;;;;;2.20;2.00;;;30.40;53.90;;;;;;5035552;28;20179;-73
2022/08/30 08:12:06;;;;;;;2.77;2.40;;;30.30;55.20;;;;;;5035535;28;20499;-73
2022/08/30 08:14:33;;;;;;;6.80;2.40;;;30.10;57.00;;;;;;5044088;28;20457;-73
2022/08/30 08:16:59;;;;;;;4.47;1.80;;;29.80;55.60;;;;;;5040432;28;20406;-74
2022/08/30 08:19:24;;;;;;;2.40;2.20;;;29.70;56.00;;;;;;5035549;28;20406;-73
2022/08/30 08:21:55;;;;;;;2.87;2.17;;;29.70;56.60;;;;;;5035865;28;20428;-73
2022/08/30 08:24:24;;;;;;;3.07;2.20;;;29.90;58.00;;;;;;5035165;28;20286;-73
2022/08/30 08:26:50;;;;;;;4.90;1.93;;;30.30;57.00;;;;;;5035564;28;20416;-73
2022/08/30 08:29:15;;;;;;;2.93;1.93;;;30.50;54.50;;;;;;5052097;28;20413;-73
2022/08/30 08:31:41;;;;;;;2.47;2.10;;;30.70;55.90;;;;;;5055195;28;20200;-74
2022/08/30 08:34:07;;;;;;;2.43;1.87;;;31.00;53.70;;;;;;5049518;28;20221;-74
2022/08/30 08:36:34;;;;;;;3.03;2.60;;;31.70;54.60;;;;;;5053544;28;20178;-74
2022/08/30 08:39:02;;;;;;;2.43;2.23;;;32.50;51.30;;;;;;5055063;28;20167;-74
2022/08/30 08:41:36;;;;;;;2.93;1.93;;;33.50;50.10;;;;;;5054245;28;20441;-74
2022/08/30 08:44:13;;;;;;;1.63;1.53;;;34.40;47.50;;;;;;5052145;28;20452;-74
2022/08/30 08:46:59;;;;;;;2.60;2.20;;;35.00;48.00;;;;;;5054877;28;20440;-74
2022/08/30 08:49:24;;;;;;;1.93;1.83;;;36.10;45.70;;;;;;5054674;28;20405;-74
2022/08/30 08:55:06;;;;;;;2.30;2.10;;;38.30;40.80;;;;;;5054509;28;20205;-74
2022/08/30 08:57:34;;;;;;;2.70;2.33;;;39.20;38.90;;;;;;5034828;28;20548;-74
2022/08/30 09:00:00;;;;;;;3.30;2.13;;;39.70;36.40;;;;;;5034612;28;20433;-74
2022/08/30 09:02:38;;;;;;;3.37;2.47;;;40.70;35.50;;;;;;5034483;28;20990;-74
2022/08/30 09:05:04;;;;;;;3.03;2.30;;;41.50;34.70;;;;;;5034053;28;20174;-75
2022/08/30 09:07:36;;;;;;;3.23;2.40;;;42.20;34.00;;;;;;5033343;28;20471;-74
2022/08/30 09:10:01;;;;;;;3.13;2.33;;;43.00;32.80;;;;;;5041715;28;20504;-74
2022/08/30 09:12:27;;;;;;;2.43;2.20;;;43.60;30.80;;;;;;5054148;28;20404;-74
2022/08/30 09:15:05;;;;;;;2.40;2.00;;;44.30;29.80;;;;;;5048455;28;20209;-74
2022/08/30 09:17:55;;;;;;;2.47;2.27;;;44.90;28.90;;;;;;5032278;28;20179;-74
2022/08/30 09:20:27;;;;;;;2.90;2.60;;;45.60;28.80;;;;;;5028760;28;20432;-71
2022/08/30 09:22:53;;;;;;;2.30;2.10;;;45.50;27.80;;;;;;5034639;28;20414;-71
2022/08/30 09:25:26;;;;;;;4.20;2.30;;;45.10;27.30;;;;;;5042988;28;20950;-71
2022/08/30 09:27:53;;;;;;;2.30;2.10;;;44.50;28.30;;;;;;5034698;28;20316;-71
2022/08/30 09:30:23;;;;;;;2.80;2.60;;;44.50;28.20;;;;;;5030375;28;20448;-71
2022/08/30 09:32:55;;;;;;;2.70;2.50;;;45.00;27.40;;;;;;5032782;28;20430;-71
2022/08/30 09:35:34;;;;;;;2.87;2.60;;;45.70;27.20;;;;;;5032437;28;20437;-72
2022/08/30 09:38:19;;;;;;;3.10;2.63;;;46.10;27.40;;;;;;5042173;28;20391;-72
2022/08/30 09:40:54;;;;;;;2.37;2.23;;;46.70;26.20;;;;;;5053990;28;20388;-72
2022/08/30 09:43:26;;;;;;;2.50;2.30;;;47.20;26.60;;;;;;5054577;28;20423;-72
2022/08/30 09:45:58;;;;;;;3.40;2.93;;;47.60;25.20;;;;;;5053929;28;20387;-72
2022/08/30 09:48:43;;;;;;;3.50;2.20;;;48.00;24.40;;;;;;5054380;28;20384;-72
2022/08/30 09:51:09;;;;;;;2.90;2.60;;;47.70;24.80;;;;;;5049180;28;20469;-72
2022/08/30 09:53:37;;;;;;;2.13;2.03;;;47.70;24.40;;;;;;5034383;28;20450;-72
2022/08/30 09:56:09;;;;;;;3.10;2.47;;;47.80;24.70;;;;;;5034232;28;20205;-72
2022/08/30 09:58:47;;;;;;;3.20;2.80;;;47.50;24.70;;;;;;5033769;28;20896;-72
2022/08/30 10:01:19;;;;;;;3.57;2.67;;;47.80;24.50;;;;;;5034256;28;20410;-72
2022/08/30 10:04:00;;;;;;;2.43;2.23;;;48.00;24.40;;;;;;5033943;28;20401;-71
2022/08/30 10:06:42;;;;;;;4.33;2.87;;;48.30;23.80;;;;;;5047173;28;20417;-71
2022/08/30 10:09:29;;;;;;;2.50;2.30;;;48.30;23.90;;;;;;5054220;28;20380;-72
2022/08/30 10:11:58;;;;;;;2.70;2.50;;;48.00;24.20;;;;;;5053898;28;20401;-71
2022/08/30 10:14:42;;;;;;;2.70;2.50;;;47.70;24.70;;;;;;5053474;28;20885;-72
2022/08/30 10:17:20;;;;;;;2.40;2.20;;;47.60;24.60;;;;;;5053435;28;20459;-71
2022/08/30 10:20:07;;;;;;;3.20;2.63;;;47.00;23.50;;;;;;5043656;28;20424;-71
2022/08/30 10:22:39;;;;;;;2.80;2.50;;;46.10;24.40;;;;;;5032431;28;20426;-71
2022/08/30 10:25:17;;;;;;;2.03;1.83;;;45.20;25.30;;;;;;5033533;28;20377;-71
2022/08/30 10:27:51;;;;;;;2.60;2.40;;;44.50;24.80;;;;;;5033731;28;20883;-71
2022/08/30 10:30:17;;;;;;;2.97;2.67;;;44.00;25.50;;;;;;5033649;28;20429;-71
2022/08/30 10:32:51;;;;;;;2.63;2.40;;;43.30;24.90;;;;;;5033212;28;20421;-71
2022/08/30 10:35:24;;;;;;;2.70;2.50;;;43.50;26.30;;;;;;5053240;28;20445;-71
2022/08/30 10:37:55;;;;;;;4.57;2.70;;;44.20;25.60;;;;;;5053376;28;20468;-71
2022/08/30 10:43:59;;;;;;;3.40;2.53;;;43.80;24.70;;;;;;5049899;28;20920;-71
2022/08/30 10:46:56;;;;;;;2.53;2.30;;;42.80;25.80;;;;;;5032597;28;20430;-71
2022/08/30 10:49:26;;;;;;;2.47;2.27;;;41.70;25.80;;;;;;5033263;28;20410;-71
2022/08/30 10:51:57;;;;;;;2.20;2.00;;;40.80;27.40;;;;;;5032115;28;20781;-72
2022/08/30 10:54:34;;;;;;;3.20;1.90;;;40.40;26.90;;;;;;5032836;28;20457;-72
2022/08/30 10:56:59;;;;;;;3.27;2.97;;;40.40;27.10;;;;;;5033165;28;20914;-72
2022/08/30 10:59:27;;;;;;;3.27;2.70;;;40.30;28.00;;;;;;5033368;28;20437;-72
2022/08/30 11:02:39;;;;;;;2.13;1.93;;;40.60;27.90;;;;;;5033035;28;20463;-72
2022/08/30 11:05:42;;;;;;;2.53;2.23;;;41.80;28.70;;;;;;5030810;28;20410;-72
2022/08/30 11:08:36;;;;;;;3.03;2.60;;;43.60;26.50;;;;;;5033134;28;20410;-72
2022/08/30 11:11:27;;;;;;;2.90;2.70;;;44.60;25.70;;;;;;5013228;28;20404;-72
2022/08/30 11:13:54;;;;;;;3.37;2.73;;;45.20;24.70;;;;;;5011805;28;20420;-72
2022/08/30 11:16:37;;;;;;;3.20;2.90;;;46.30;25.50;;;;;;5029485;28;20397;-72
2022/08/30 11:19:11;;;;;;;2.87;2.60;;;46.80;24.70;;;;;;5031869;28;20471;-72
2022/08/30 11:21:38;;;;;;;3.33;3.03;;;47.30;25.20;;;;;;5032951;28;20501;-72
2022/08/30 11:24:08;;;;;;;2.90;2.70;;;48.20;24.70;;;;;;5050030;28;20441;-72
2022/08/30 11:26:48;;;;;;;3.10;2.80;;;48.90;23.80;;;;;;5052552;28;20391;-72
2022/08/30 11:29:34;;;;;;;5.07;2.97;;;49.20;23.00;;;;;;5052195;28;20853;-72
2022/08/30 11:32:18;;;;;;;2.67;2.47;;;49.10;23.50;;;;;;5018703;28;20886;-72
2022/08/30 11:34:46;;;;;;;3.40;2.60;;;49.40;23.60;;;;;;5023583;28;20419;-72
2022/08/30 11:37:35;;;;;;;3.03;2.50;;;49.40;23.30;;;;;;5052941;28;20399;-72
2022/08/30 11:40:25;;;;;;;2.70;2.50;;;49.40;22.80;;;;;;5052867;28;20368;-72
2022/08/30 11:42:54;;;;;;;2.93;2.67;;;49.30;23.20;;;;;;5050556;28;21034;-72
2022/08/30 11:45:22;;;;;;;6.03;3.03;;;49.30;23.10;;;;;;5052346;28;20380;-72
2022/08/30 11:48:00;;;;;;;5.63;3.00;;;49.10;23.10;;;;;;5035667;28;20385;-72
2022/08/30 11:50:47;;;;;;;3.27;2.97;;;49.50;23.00;;;;;;5032867;28;20877;-72
2022/08/30 11:53:41;;;;;;;4.83;2.90;;;49.80;23.30;;;;;;5032651;28;20432;-72
2022/08/30 11:56:13;;;;;;;3.10;2.90;;;50.10;22.60;;;;;;5030765;28;20955;-72
2022/08/30 11:59:04;;;;;;;9.20;3.30;;;50.40;22.40;;;;;;5032585;28;20876;-72
2022/08/30 12:01:34;;;;;;;3.67;3.37;;;51.20;22.20;;;;;;5044205;28;20395;-72
2022/08/30 12:04:24;;;;;;;3.00;2.80;;;51.00;21.50;;;;;;5052444;28;20435;-72
2022/08/30 12:07:05;;;;;;;3.33;3.13;;;49.50;22.00;;;;;;5052463;28;20375;-72
2022/08/30 12:09:33;;;;;;;2.83;2.50;;;47.80;23.00;;;;;;5052385;28;20394;-72
2022/08/30 12:12:01;;;;;;;2.87;2.50;;;47.30;23.60;;;;;;5052560;28;21096;-72
2022/08/30 12:14:53;;;;;;;2.63;2.43;;;47.90;23.80;;;;;;5044070;28;20854;-72
2022/08/30 12:20:37;;;;;;;3.20;2.90;;;49.10;23.60;;;;;;5032647;28;20731;-72
2022/08/30 12:23:22;;;;;;;3.00;2.80;;;50.20;23.40;;;;;;5032178;28;20389;-72
2022/08/30 12:25:48;;;;;;;3.27;2.90;;;50.80;23.10;;;;;;5035304;28;20383;-72
2022/08/30 12:28:24;;;;;;;4.90;2.83;;;50.60;22.80;;;;;;5052155;28;20405;-72
2022/08/30 12:30:51;;;;;;;3.37;3.07;;;50.80;23.30;;;;;;5052078;28;20371;-72
2022/08/30 12:33:30;;;;;;;3.37;3.07;;;51.00;23.10;;;;;;5052400;28;20926;-72
2022/08/30 12:35:58;;;;;;;3.07;2.87;;;51.20;23.20;;;;;;5050536;28;20468;-72
2022/08/30 12:38:24;;;;;;;3.27;3.00;;;51.30;22.90;;;;;;5052056;28;20434;-72
2022/08/30 12:40:52;;;;;;;3.60;3.40;;;51.60;23.10;;;;;;5038071;28;20417;-72
2022/08/30 12:43:26;;;;;;;3.60;3.37;;;51.70;22.70;;;;;;5034179;28;20430;-72
2022/08/30 12:45:56;;;;;;;3.50;3.10;;;51.80;23.00;;;;;;5035576;28;20425;-72
2022/08/30 12:48:21;;;;;;;3.93;3.73;;;52.00;23.00;;;;;;5035557;28;20413;-72
2022/08/30 12:50:52;;;;;;;4.10;3.80;;;52.00;22.70;;;;;;5034410;28;20438;-72
2022/08/30 12:53:44;;;;;;;3.77;3.53;;;51.80;22.50;;;;;;5039406;28;20199;-72
2022/08/30 12:56:15;;;;;;;3.63;3.33;;;51.00;22.70;;;;;;5055310;28;20434;-72
2022/08/30 12:59:00;;;;;;;2.80;2.60;;;50.10;22.80;;;;;;5055506;28;20470;-72
2022/08/30 13:01:34;;;;;;;3.27;3.07;;;49.80;23.40;;;;;;5055120;28;20379;-72
2022/08/30 13:04:21;;;;;;;3.70;3.40;;;50.00;23.10;;;;;;5055045;28;20442;-72
2022/08/30 13:06:57;;;;;;;3.70;3.40;;;50.20;23.10;;;;;;5039162;28;20418;-72
2022/08/30 13:09:38;;;;;;;3.40;3.10;;;50.50;23.00;;;;;;5035605;28;20406;-72
2022/08/30 13:12:08;;;;;;;3.17;2.97;;;50.60;23.10;;;;;;5035040;28;20418;-72
2022/08/30 13:14:42;;;;;;;3.37;3.13;;;50.10;22.80;;;;;;5034623;28;20450;-72